createdAt,value
2022-12-25T00:00:12.600Z,61.90
2022-12-25T00:02:43.631Z,62.00
2022-12-25T00:05:13.369Z,62.00
2022-12-25T00:07:41.684Z,62.10
2022-12-25T00:10:11.297Z,62.10
2022-12-25T00:12:40.228Z,62.20
2022-12-25T00:15:09.553Z,62.20
2022-12-25T00:17:37.876Z,62.30
2022-12-25T00:20:07.967Z,62.50
2022-12-25T00:22:37.851Z,62.50
2022-12-25T00:25:06.770Z,62.40
2022-12-25T00:27:37.772Z,62.50
2022-12-25T00:30:08.100Z,62.50
2022-12-25T00:32:37.468Z,62.50
2022-12-25T00:35:07.126Z,62.60
2022-12-25T00:37:36.829Z,62.60
2022-12-25T00:40:06.082Z,62.50
2022-12-25T00:42:34.403Z,62.60
2022-12-25T00:45:02.713Z,62.60
2022-12-25T00:47:31.243Z,62.60
2022-12-25T00:49:59.572Z,62.60
2022-12-25T00:52:27.910Z,62.60
2022-12-25T00:54:57.629Z,62.60
2022-12-25T00:57:26.010Z,62.50
2022-12-25T00:59:54.377Z,62.70
2022-12-25T01:02:26.515Z,62.70
2022-12-25T01:04:57.562Z,62.60
2022-12-25T01:07:27.457Z,62.60
2022-12-25T01:10:14.595Z,62.60
2022-12-25T01:12:44.845Z,62.70
2022-12-25T01:15:14.656Z,62.40
2022-12-25T01:17:43.822Z,62.40
2022-12-25T01:20:14.584Z,62.30
2022-12-25T01:22:43.553Z,62.30
2022-12-25T01:25:14.215Z,62.60
2022-12-25T01:27:43.480Z,62.40
2022-12-25T01:30:13.026Z,62.50
2022-12-25T01:32:41.378Z,62.50
2022-12-25T01:35:10.657Z,62.50
2022-12-25T01:37:39.184Z,62.40
2022-12-25T01:40:10.069Z,62.50
2022-12-25T01:42:39.852Z,62.40
2022-12-25T01:45:42.204Z,62.60
2022-12-25T01:48:16.689Z,62.50
2022-12-25T01:50:49.042Z,62.40
2022-12-25T01:53:17.669Z,62.50
2022-12-25T01:55:49.879Z,62.50
2022-12-25T01:58:20.149Z,62.50
2022-12-25T02:00:48.617Z,62.60
2022-12-25T02:03:17.162Z,62.50
2022-12-25T02:05:48.490Z,62.50
2022-12-25T02:08:20.563Z,63.10
2022-12-25T02:10:49.259Z,62.40
2022-12-25T02:13:21.599Z,62.40
2022-12-25T02:16:02.294Z,62.60
2022-12-25T02:18:39.658Z,62.60
2022-12-25T02:21:26.304Z,62.90
2022-12-25T02:24:17.342Z,62.50
2022-12-25T02:27:08.993Z,62.50
2022-12-25T02:29:54.071Z,62.50
2022-12-25T02:32:29.958Z,62.40
2022-12-25T02:35:03.592Z,62.50
2022-12-25T02:37:39.917Z,62.50
2022-12-25T02:40:16.600Z,62.50
2022-12-25T02:43:05.107Z,62.40
2022-12-25T02:45:57.527Z,62.50
2022-12-25T02:48:47.715Z,62.50
2022-12-25T02:51:39.628Z,62.50
2022-12-25T02:54:29.753Z,62.50
2022-12-25T02:57:17.345Z,62.70
2022-12-25T03:00:06.849Z,62.50
2022-12-25T03:02:54.686Z,62.50
2022-12-25T03:05:43.637Z,62.50
2022-12-25T03:08:17.915Z,62.50
2022-12-25T03:11:08.702Z,63.20
2022-12-25T03:13:41.059Z,62.50
2022-12-25T03:16:29.015Z,62.40
2022-12-25T03:18:59.838Z,62.60
2022-12-25T03:21:45.574Z,62.40
2022-12-25T03:24:31.743Z,62.40
2022-12-25T03:27:01.235Z,62.40
2022-12-25T03:29:51.377Z,62.50
2022-12-25T03:32:29.861Z,62.40
2022-12-25T03:35:20.680Z,62.50
2022-12-25T03:38:29.399Z,62.60
2022-12-25T03:41:27.295Z,62.60
2022-12-25T03:44:29.171Z,62.60
2022-12-25T03:47:35.417Z,62.60
2022-12-25T03:50:28.583Z,62.60
2022-12-25T03:53:19.338Z,62.50
2022-12-25T03:56:05.912Z,62.50
2022-12-25T03:58:52.021Z,62.60
2022-12-25T04:01:38.136Z,62.60
2022-12-25T04:04:24.414Z,62.80
2022-12-25T04:07:11.975Z,62.60
2022-12-25T04:09:57.870Z,62.60
2022-12-25T04:12:43.946Z,62.70
2022-12-25T04:15:30.256Z,62.80
2022-12-25T04:18:21.574Z,62.80
2022-12-25T04:21:07.285Z,62.80
2022-12-25T04:23:54.441Z,62.80
2022-12-25T04:26:40.383Z,62.80
2022-12-25T04:29:26.501Z,62.90
2022-12-25T04:32:12.593Z,62.90
2022-12-25T04:34:58.615Z,62.80
2022-12-25T04:37:27.659Z,62.80
2022-12-25T04:39:57.381Z,62.80
2022-12-25T04:42:25.745Z,62.90
2022-12-25T04:44:54.042Z,63.00
2022-12-25T04:47:22.424Z,63.00
2022-12-25T04:49:51.294Z,63.10
2022-12-25T04:52:19.590Z,63.20
2022-12-25T04:54:47.988Z,63.20
2022-12-25T04:57:17.850Z,63.20
2022-12-25T04:59:46.240Z,63.20
2022-12-25T05:02:14.710Z,63.20
2022-12-25T05:04:43.110Z,63.10
2022-12-25T05:07:11.420Z,63.00
2022-12-25T05:09:41.776Z,63.00
2022-12-25T05:12:11.402Z,63.10
2022-12-25T05:14:41.310Z,63.10
2022-12-25T05:17:09.706Z,63.70
2022-12-25T05:19:38.076Z,63.00
2022-12-25T05:22:06.524Z,63.10
2022-12-25T05:24:34.981Z,63.20
2022-12-25T05:27:03.290Z,63.20
2022-12-25T05:29:31.635Z,63.30
2022-12-25T05:32:01.302Z,63.30
2022-12-25T05:34:29.644Z,63.30
2022-12-25T05:36:58.099Z,63.40
2022-12-25T05:39:26.468Z,63.50
2022-12-25T05:41:54.787Z,63.50
2022-12-25T05:44:23.376Z,63.50
2022-12-25T05:46:51.708Z,63.60
2022-12-25T05:49:21.469Z,63.60
2022-12-25T05:51:49.838Z,63.70
2022-12-25T05:54:18.275Z,63.60
2022-12-25T05:56:46.572Z,63.60
2022-12-25T05:59:14.973Z,63.50
2022-12-25T06:01:43.402Z,63.50
2022-12-25T06:04:13.022Z,63.50
2022-12-25T06:06:43.169Z,63.60
2022-12-25T06:09:13.527Z,63.60
2022-12-25T06:11:42.024Z,63.50
2022-12-25T06:14:13.350Z,63.40
2022-12-25T06:16:42.144Z,63.40
2022-12-25T06:19:10.533Z,63.40
2022-12-25T06:21:38.860Z,63.40
2022-12-25T06:24:09.093Z,63.30
2022-12-25T06:26:37.734Z,63.30
2022-12-25T06:29:06.373Z,63.40
2022-12-25T06:31:35.011Z,64.10
2022-12-25T06:34:03.370Z,63.30
2022-12-25T06:36:31.832Z,63.30
2022-12-25T06:39:01.810Z,63.30
2022-12-25T06:41:32.293Z,63.30
2022-12-25T06:44:02.647Z,63.30
2022-12-25T06:46:31.744Z,63.40
2022-12-25T06:49:01.141Z,63.30
2022-12-25T06:51:31.640Z,63.40
2022-12-25T06:54:03.768Z,63.30
2022-12-25T06:56:35.008Z,63.40
2022-12-25T06:59:05.819Z,63.30
2022-12-25T07:01:38.817Z,63.40
2022-12-25T07:04:11.201Z,63.30
2022-12-25T07:06:39.626Z,63.30
2022-12-25T07:09:07.950Z,63.20
2022-12-25T07:11:37.800Z,63.20
2022-12-25T07:14:06.351Z,63.20
2022-12-25T07:16:34.711Z,63.40
2022-12-25T07:19:03.066Z,63.20
2022-12-25T07:21:31.415Z,63.10
2022-12-25T07:23:59.697Z,63.10
2022-12-25T07:26:27.961Z,63.20
2022-12-25T07:28:58.018Z,63.10
2022-12-25T07:31:26.310Z,63.10
2022-12-25T07:33:55.400Z,63.30
2022-12-25T07:36:23.743Z,63.20
2022-12-25T07:38:52.369Z,63.20
2022-12-25T07:41:20.689Z,63.30
2022-12-25T07:43:51.919Z,63.30
2022-12-25T07:46:21.898Z,63.20
2022-12-25T07:48:50.548Z,63.30
2022-12-25T07:51:18.876Z,63.30
2022-12-25T07:53:47.438Z,63.20
2022-12-25T07:56:19.381Z,63.30
2022-12-25T07:58:48.433Z,63.10
2022-12-25T08:01:20.207Z,63.20
2022-12-25T08:03:53.487Z,63.20
2022-12-25T08:06:24.929Z,63.30
2022-12-25T08:08:53.215Z,63.30
2022-12-25T08:11:21.622Z,63.40
2022-12-25T08:13:50.056Z,63.40
2022-12-25T08:16:18.399Z,63.40
2022-12-25T08:18:46.938Z,63.50
2022-12-25T08:21:16.999Z,63.50
2022-12-25T08:23:47.393Z,63.50
2022-12-25T08:26:19.829Z,63.60
2022-12-25T08:28:49.124Z,64.10
2022-12-25T08:31:20.704Z,63.60
2022-12-25T08:33:50.224Z,63.60
2022-12-25T08:36:21.146Z,63.60
2022-12-25T08:38:49.887Z,63.60
2022-12-25T08:41:19.164Z,63.60
2022-12-25T08:43:47.601Z,64.30
2022-12-25T08:46:16.354Z,63.60
2022-12-25T08:48:47.186Z,63.70
2022-12-25T08:51:19.725Z,63.70
2022-12-25T08:53:50.189Z,64.00
2022-12-25T08:56:19.844Z,63.70
2022-12-25T08:58:48.627Z,63.80
2022-12-25T09:01:17.057Z,63.70
2022-12-25T09:03:45.666Z,63.70
2022-12-25T09:06:16.959Z,63.70
2022-12-25T09:08:49.702Z,63.80
2022-12-25T09:11:20.870Z,63.70
2022-12-25T09:13:49.747Z,63.80
2022-12-25T09:16:21.562Z,63.80
2022-12-25T09:18:50.841Z,63.80
2022-12-25T09:21:20.236Z,63.80
2022-12-25T09:23:50.072Z,64.00
2022-12-25T09:26:20.061Z,64.10
2022-12-25T09:28:52.252Z,64.20
2022-12-25T09:31:22.390Z,64.30
2022-12-25T09:33:51.359Z,64.40
2022-12-25T09:36:21.369Z,64.50
2022-12-25T09:38:51.444Z,64.50
2022-12-25T09:41:24.765Z,64.50
2022-12-25T09:43:57.671Z,64.60
2022-12-25T09:46:36.682Z,64.80
2022-12-25T09:49:12.822Z,64.80
2022-12-25T09:51:44.576Z,64.80
2022-12-25T09:54:22.534Z,64.90
2022-12-25T09:56:50.945Z,65.10
2022-12-25T09:59:27.824Z,65.20
2022-12-25T10:02:27.115Z,65.50
2022-12-25T10:05:14.213Z,65.70
2022-12-25T10:07:49.009Z,65.90
2022-12-25T10:10:39.273Z,66.10
2022-12-25T10:13:23.777Z,66.50
2022-12-25T10:16:04.417Z,66.60
2022-12-25T10:19:12.814Z,66.70
2022-12-25T10:21:42.257Z,67.00
2022-12-25T10:24:24.234Z,67.00
2022-12-25T10:26:56.840Z,67.20
2022-12-25T10:29:25.190Z,67.30
2022-12-25T10:31:56.784Z,67.20
2022-12-25T10:34:25.204Z,67.30
2022-12-25T10:36:53.989Z,67.30
2022-12-25T10:39:26.472Z,67.20
2022-12-25T10:42:29.753Z,67.30
2022-12-25T10:45:00.988Z,67.50
2022-12-25T10:47:32.265Z,67.10
2022-12-25T10:50:02.758Z,67.10
2022-12-25T10:52:31.156Z,67.10
2022-12-25T10:54:59.534Z,67.10
2022-12-25T10:57:29.835Z,67.00
2022-12-25T10:59:58.640Z,67.10
2022-12-25T11:02:30.315Z,67.00
2022-12-25T11:05:04.998Z,67.10
2022-12-25T11:07:34.760Z,67.10
2022-12-25T11:10:06.713Z,67.00
2022-12-25T11:12:38.507Z,67.00
2022-12-25T11:15:33.739Z,66.90
2022-12-25T11:18:03.747Z,66.80
2022-12-25T11:20:33.315Z,66.80
2022-12-25T11:23:01.622Z,66.90
2022-12-25T11:25:30.210Z,66.90
2022-12-25T11:28:00.933Z,66.80
2022-12-25T11:30:31.641Z,67.00
2022-12-25T11:33:06.589Z,67.00
2022-12-25T11:35:48.936Z,67.10
2022-12-25T11:38:17.354Z,67.50
2022-12-25T11:40:50.449Z,67.50
2022-12-25T11:43:24.755Z,67.40
2022-12-25T11:45:57.143Z,67.40
2022-12-25T11:48:31.164Z,67.30
2022-12-25T11:51:04.021Z,67.40
2022-12-25T11:53:40.095Z,67.20
2022-12-25T11:56:12.997Z,67.10
2022-12-25T11:58:46.145Z,66.90
2022-12-25T12:01:20.363Z,66.90
2022-12-25T12:03:50.513Z,66.90
2022-12-25T12:06:28.380Z,66.80
2022-12-25T12:09:03.927Z,67.00
2022-12-25T12:11:39.932Z,67.00
2022-12-25T12:14:28.364Z,67.20
2022-12-25T12:16:56.696Z,68.10
2022-12-25T12:19:29.934Z,67.10
2022-12-25T12:22:01.463Z,67.20
2022-12-25T12:24:34.197Z,67.10
2022-12-25T12:27:05.431Z,67.00
2022-12-25T12:29:40.906Z,67.00
2022-12-25T12:32:35.045Z,66.90
2022-12-25T12:35:17.029Z,66.90
2022-12-25T12:37:48.033Z,66.60
2022-12-25T12:40:28.691Z,67.20
2022-12-25T12:42:57.204Z,66.30
2022-12-25T12:45:30.448Z,66.00
2022-12-25T12:47:59.563Z,65.90
2022-12-25T12:50:34.934Z,65.80
2022-12-25T12:53:23.445Z,65.70
2022-12-25T12:55:52.991Z,65.50
2022-12-25T12:58:33.122Z,65.30
2022-12-25T13:01:21.008Z,65.30
2022-12-25T13:04:22.986Z,65.20
2022-12-25T13:06:59.752Z,65.20
2022-12-25T13:09:46.541Z,65.00
2022-12-25T13:12:15.973Z,65.00
2022-12-25T13:14:48.107Z,64.80
2022-12-25T13:17:23.077Z,64.70
2022-12-25T13:19:57.577Z,64.60
2022-12-25T13:22:32.566Z,64.50
2022-12-25T13:25:03.157Z,64.40
2022-12-25T13:27:33.997Z,64.40
2022-12-25T13:30:14.456Z,64.40
2022-12-25T13:32:45.930Z,64.40
2022-12-25T13:35:15.366Z,64.40
2022-12-25T13:37:46.411Z,64.40
2022-12-25T13:40:25.192Z,64.40
2022-12-25T13:42:59.801Z,64.40
2022-12-25T13:45:30.600Z,64.30
2022-12-25T13:48:12.506Z,64.30
2022-12-25T13:50:46.690Z,64.40
2022-12-25T13:53:18.914Z,64.40
2022-12-25T13:55:53.085Z,64.40
2022-12-25T13:58:27.645Z,64.30
2022-12-25T14:00:58.120Z,64.30
2022-12-25T14:03:33.837Z,64.30
2022-12-25T14:06:04.425Z,64.30
2022-12-25T14:08:36.588Z,64.30
2022-12-25T14:11:07.275Z,64.30
2022-12-25T14:13:39.330Z,64.30
2022-12-25T14:16:09.504Z,64.30
2022-12-25T14:18:38.653Z,64.30
2022-12-25T14:21:10.737Z,64.30
2022-12-25T14:23:45.634Z,64.30
2022-12-25T14:26:18.360Z,64.40
2022-12-25T14:28:50.591Z,64.40
2022-12-25T14:31:19.807Z,64.40
2022-12-25T14:33:49.792Z,64.40
2022-12-25T14:36:18.265Z,64.40
2022-12-25T14:38:58.792Z,64.40
2022-12-25T14:41:38.100Z,64.50
2022-12-25T14:44:29.427Z,64.40
2022-12-25T14:47:12.105Z,64.40
2022-12-25T14:49:40.456Z,64.40
2022-12-25T14:52:19.635Z,64.30
2022-12-25T14:54:52.565Z,64.40
2022-12-25T14:57:30.563Z,64.40
2022-12-25T15:00:07.542Z,64.40
2022-12-25T15:02:44.972Z,64.50
2022-12-25T15:05:33.491Z,64.70
2022-12-25T15:08:20.749Z,64.80
2022-12-25T15:11:01.150Z,64.70
2022-12-25T15:13:32.050Z,64.90
2022-12-25T15:16:07.590Z,64.90
2022-12-25T15:18:39.607Z,64.90
2022-12-25T15:21:08.415Z,64.90
2022-12-25T15:23:36.790Z,64.90
2022-12-25T15:26:06.692Z,64.90
2022-12-25T15:28:35.036Z,64.90
2022-12-25T15:31:03.407Z,65.00
2022-12-25T15:33:33.157Z,64.90
2022-12-25T15:36:01.441Z,64.90
2022-12-25T15:38:36.431Z,64.90
2022-12-25T15:41:06.677Z,64.90
2022-12-25T15:43:42.113Z,65.00
2022-12-25T15:46:11.184Z,64.90
2022-12-25T15:48:39.601Z,64.80
2022-12-25T15:51:07.892Z,64.90
2022-12-25T15:53:36.171Z,65.00
2022-12-25T15:56:06.365Z,64.90
2022-12-25T15:58:34.630Z,65.00
2022-12-25T16:01:02.943Z,65.00
2022-12-25T16:03:31.468Z,65.00
2022-12-25T16:05:59.838Z,65.00
2022-12-25T16:08:28.111Z,65.00
2022-12-25T16:10:56.479Z,65.00
2022-12-25T16:13:26.064Z,65.00
2022-12-25T16:15:54.435Z,65.00
2022-12-25T16:18:23.902Z,65.00
2022-12-25T16:20:52.784Z,64.90
2022-12-25T16:23:21.158Z,64.90
2022-12-25T16:25:50.067Z,65.00
2022-12-25T16:28:18.520Z,64.90
2022-12-25T16:30:48.277Z,64.90
2022-12-25T16:33:16.696Z,64.80
2022-12-25T16:35:45.296Z,64.80
2022-12-25T16:38:13.659Z,64.70
2022-12-25T16:40:41.996Z,64.80
2022-12-25T16:43:10.393Z,64.70
2022-12-25T16:45:40.490Z,64.70
2022-12-25T16:48:10.260Z,64.70
2022-12-25T16:50:40.138Z,64.70
2022-12-25T16:53:08.818Z,64.70
2022-12-25T16:55:38.708Z,64.70
2022-12-25T16:58:07.987Z,64.60
2022-12-25T17:00:36.491Z,64.60
2022-12-25T17:03:05.128Z,64.60
2022-12-25T17:05:35.667Z,64.50
2022-12-25T17:08:04.036Z,64.50
2022-12-25T17:10:32.458Z,64.60
2022-12-25T17:13:00.737Z,64.60
2022-12-25T17:15:29.448Z,64.60
2022-12-25T17:17:57.794Z,64.60
2022-12-25T17:20:26.088Z,64.60
2022-12-25T17:22:56.102Z,64.60
2022-12-25T17:25:24.455Z,64.70
2022-12-25T17:27:52.815Z,64.60
2022-12-25T17:30:21.268Z,64.70
2022-12-25T17:32:49.801Z,64.60
2022-12-25T17:35:20.811Z,64.60
2022-12-25T17:37:49.153Z,64.70
2022-12-25T17:40:19.304Z,64.70
2022-12-25T17:42:47.657Z,64.70
2022-12-25T17:45:16.145Z,64.60
2022-12-25T17:47:44.481Z,64.60
2022-12-25T17:50:12.757Z,64.60
2022-12-25T17:52:41.136Z,64.60
2022-12-25T17:55:10.485Z,64.70
2022-12-25T17:57:41.366Z,64.70
2022-12-25T18:00:10.937Z,64.60
2022-12-25T18:02:40.184Z,64.60
2022-12-25T18:05:09.921Z,64.60
2022-12-25T18:07:38.337Z,64.60
2022-12-25T18:10:08.341Z,64.50
2022-12-25T18:12:36.679Z,64.50
2022-12-25T18:15:07.536Z,64.40
2022-12-25T18:17:35.827Z,64.50
2022-12-25T18:20:04.848Z,64.40
2022-12-25T18:22:34.700Z,64.50
2022-12-25T18:25:02.987Z,64.40
2022-12-25T18:27:31.356Z,64.50
2022-12-25T18:29:59.775Z,64.50
2022-12-25T18:32:29.582Z,64.50
2022-12-25T18:34:57.994Z,64.50
2022-12-25T18:37:31.916Z,64.50
2022-12-25T18:40:03.059Z,64.60
2022-12-25T18:42:40.385Z,64.60
2022-12-25T18:45:11.784Z,64.60
2022-12-25T18:47:41.824Z,64.60
2022-12-25T18:50:10.685Z,64.50
2022-12-25T18:52:48.984Z,64.50
2022-12-25T18:55:21.057Z,64.60
2022-12-25T18:57:49.611Z,64.60
2022-12-25T19:00:18.911Z,64.50
2022-12-25T19:02:49.540Z,64.50
2022-12-25T19:05:18.641Z,64.50
2022-12-25T19:07:46.947Z,64.50
2022-12-25T19:10:15.617Z,64.40
2022-12-25T19:12:44.022Z,64.40
2022-12-25T19:15:12.874Z,64.30
2022-12-25T19:17:41.290Z,64.30
2022-12-25T19:20:12.952Z,64.30
2022-12-25T19:22:41.331Z,64.30
2022-12-25T19:25:10.464Z,64.20
2022-12-25T19:27:39.095Z,64.30
2022-12-25T19:30:09.642Z,64.20
2022-12-25T19:32:37.952Z,64.30
2022-12-25T19:35:07.630Z,64.20
2022-12-25T19:37:37.784Z,64.30
2022-12-25T19:40:07.309Z,64.30
2022-12-25T19:42:35.725Z,64.30
2022-12-25T19:45:04.373Z,64.30
2022-12-25T19:47:32.667Z,64.30
2022-12-25T19:50:03.298Z,64.30
2022-12-25T19:52:32.175Z,64.30
2022-12-25T19:55:01.925Z,64.30
2022-12-25T19:57:30.234Z,64.30
2022-12-25T19:59:58.596Z,64.20
2022-12-25T20:02:27.142Z,64.20
2022-12-25T20:04:55.477Z,64.20
2022-12-25T20:07:23.848Z,64.20
2022-12-25T20:09:52.127Z,64.10
2022-12-25T20:12:21.780Z,64.10
2022-12-25T20:14:50.369Z,64.10
2022-12-25T20:17:18.838Z,64.10
2022-12-25T20:19:47.221Z,64.00
2022-12-25T20:22:15.581Z,64.00
2022-12-25T20:24:44.111Z,64.00
2022-12-25T20:27:12.444Z,64.00
2022-12-25T20:29:42.146Z,64.00
2022-12-25T20:32:10.535Z,64.00
2022-12-25T20:34:38.989Z,64.10
2022-12-25T20:37:07.453Z,64.00
2022-12-25T20:39:36.995Z,64.10
2022-12-25T20:42:07.037Z,64.20
2022-12-25T20:44:37.042Z,64.10
2022-12-25T20:47:07.975Z,64.10
2022-12-25T20:49:37.633Z,64.00
2022-12-25T20:52:07.083Z,64.00
2022-12-25T20:54:37.068Z,64.00
2022-12-25T20:57:06.581Z,64.10
2022-12-25T20:59:37.991Z,63.90
2022-12-25T21:02:10.088Z,64.00
2022-12-25T21:04:59.796Z,64.10
2022-12-25T21:07:29.065Z,64.00
2022-12-25T21:09:57.350Z,63.90
2022-12-25T21:12:25.851Z,63.90
2022-12-25T21:14:54.207Z,63.90
2022-12-25T21:17:23.921Z,63.80
2022-12-25T21:19:52.230Z,63.80
2022-12-25T21:22:20.609Z,63.80
2022-12-25T21:24:52.037Z,63.90
2022-12-25T21:27:20.436Z,64.20
2022-12-25T21:29:48.713Z,64.50
2022-12-25T21:32:34.479Z,64.80
2022-12-25T21:35:04.383Z,64.90
2022-12-25T21:37:32.977Z,65.20
2022-12-25T21:40:01.284Z,65.30
2022-12-25T21:42:29.632Z,65.20
2022-12-25T21:44:57.902Z,65.30
2022-12-25T21:47:26.185Z,65.40
2022-12-25T21:50:38.943Z,65.10
2022-12-25T21:53:08.331Z,65.10
2022-12-25T21:55:36.696Z,65.10
2022-12-25T21:58:04.999Z,65.00
2022-12-25T22:00:33.337Z,64.70
2022-12-25T22:03:01.852Z,64.60
2022-12-25T22:05:49.386Z,64.50
2022-12-25T22:08:17.778Z,64.30
2022-12-25T22:10:46.058Z,64.20
2022-12-25T22:13:32.152Z,64.00
2022-12-25T22:16:22.294Z,63.90
2022-12-25T22:19:08.401Z,63.70
2022-12-25T22:21:38.177Z,63.60
2022-12-25T22:24:08.273Z,63.50
2022-12-25T22:26:36.997Z,63.50
2022-12-25T22:29:05.352Z,63.40
2022-12-25T22:31:33.780Z,63.30
2022-12-25T22:34:02.256Z,63.30
2022-12-25T22:36:31.387Z,63.30
2022-12-25T22:39:01.073Z,63.30
2022-12-25T22:41:33.460Z,63.20
2022-12-25T22:44:18.390Z,63.20
2022-12-25T22:46:47.138Z,63.20
2022-12-25T22:49:16.511Z,63.20
2022-12-25T22:51:45.976Z,63.30
2022-12-25T22:54:17.516Z,63.10
2022-12-25T22:56:48.573Z,63.10
2022-12-25T22:59:19.138Z,63.10
2022-12-25T23:01:47.744Z,62.90
2022-12-25T23:04:16.118Z,62.90
2022-12-25T23:06:45.057Z,62.70
2022-12-25T23:09:24.239Z,62.70
2022-12-25T23:11:53.074Z,62.70
2022-12-25T23:14:38.789Z,62.60
2022-12-25T23:17:29.717Z,62.50
2022-12-25T23:20:18.237Z,62.50
2022-12-25T23:23:05.184Z,62.50
2022-12-25T23:25:53.431Z,62.30
2022-12-25T23:28:35.974Z,62.30
2022-12-25T23:31:04.420Z,62.30
2022-12-25T23:33:33.215Z,62.20
2022-12-25T23:36:01.699Z,62.10
2022-12-25T23:38:30.147Z,62.10
2022-12-25T23:40:59.885Z,62.20
2022-12-25T23:43:28.268Z,62.10
2022-12-25T23:45:56.572Z,62.30
2022-12-25T23:48:24.991Z,62.30
2022-12-25T23:50:53.347Z,62.40
2022-12-25T23:53:21.743Z,62.50
2022-12-25T23:55:55.600Z,62.90
2022-12-25T23:58:26.193Z,62.90
